sensor_id;sensor_type;location;lat;lon;timestamp;P1;durP1;ratioP1;P2;durP2;ratioP2
21941;SDS011;11135;54.192;15.670;2023-05-09T00:02:04;7.03;;;3.95;;
21941;SDS011;11135;54.192;15.670;2023-05-09T00:05:12;5.20;;;3.70;;
21941;SDS011;11135;54.192;15.670;2023-05-09T00:08:18;6.88;;;4.72;;
21941;SDS011;11135;54.192;15.670;2023-05-09T00:11:26;6.18;;;4.28;;
21941;SDS011;11135;54.192;15.670;2023-05-09T00:14:33;6.72;;;3.90;;
21941;SDS011;11135;54.192;15.670;2023-05-09T00:17:43;6.70;;;4.35;;
21941;SDS011;11135;54.192;15.670;2023-05-09T00:20:48;6.85;;;3.67;;
21941;SDS011;11135;54.192;15.670;2023-05-09T00:23:54;5.57;;;3.50;;
21941;SDS011;11135;54.192;15.670;2023-05-09T00:27:01;5.88;;;3.70;;
21941;SDS011;11135;54.192;15.670;2023-05-09T00:30:08;6.20;;;3.42;;
21941;SDS011;11135;54.192;15.670;2023-05-09T00:33:16;5.32;;;3.40;;
21941;SDS011;11135;54.192;15.670;2023-05-09T00:36:21;5.70;;;3.67;;
21941;SDS011;11135;54.192;15.670;2023-05-09T00:39:26;7.38;;;3.45;;
21941;SDS011;11135;54.192;15.670;2023-05-09T00:42:32;6.32;;;4.07;;
21941;SDS011;11135;54.192;15.670;2023-05-09T00:45:38;6.55;;;3.47;;
21941;SDS011;11135;54.192;15.670;2023-05-09T00:48:46;6.03;;;3.42;;
21941;SDS011;11135;54.192;15.670;2023-05-09T00:51:54;8.23;;;4.10;;
21941;SDS011;11135;54.192;15.670;2023-05-09T00:55:10;5.93;;;3.72;;
21941;SDS011;11135;54.192;15.670;2023-05-09T00:58:17;6.03;;;3.42;;
21941;SDS011;11135;54.192;15.670;2023-05-09T01:01:23;7.07;;;4.07;;
21941;SDS011;11135;54.192;15.670;2023-05-09T01:04:31;6.05;;;3.70;;
21941;SDS011;11135;54.192;15.670;2023-05-09T01:07:40;5.57;;;3.60;;
21941;SDS011;11135;54.192;15.670;2023-05-09T01:10:53;6.55;;;3.83;;
21941;SDS011;11135;54.192;15.670;2023-05-09T01:14:09;6.05;;;3.42;;
21941;SDS011;11135;54.192;15.670;2023-05-09T01:17:19;6.05;;;3.80;;
21941;SDS011;11135;54.192;15.670;2023-05-09T01:20:32;5.90;;;3.50;;
21941;SDS011;11135;54.192;15.670;2023-05-09T01:27:08;6.05;;;4.13;;
21941;SDS011;11135;54.192;15.670;2023-05-09T01:30:20;6.22;;;4.22;;
21941;SDS011;11135;54.192;15.670;2023-05-09T01:33:27;5.43;;;3.72;;
21941;SDS011;11135;54.192;15.670;2023-05-09T01:36:34;7.35;;;4.10;;
21941;SDS011;11135;54.192;15.670;2023-05-09T01:39:41;8.30;;;3.92;;
21941;SDS011;11135;54.192;15.670;2023-05-09T01:42:50;6.18;;;4.15;;
21941;SDS011;11135;54.192;15.670;2023-05-09T01:45:58;7.03;;;4.28;;
21941;SDS011;11135;54.192;15.670;2023-05-09T01:49:04;6.25;;;3.70;;
21941;SDS011;11135;54.192;15.670;2023-05-09T01:52:12;5.50;;;4.13;;
21941;SDS011;11135;54.192;15.670;2023-05-09T01:55:19;6.63;;;4.07;;
21941;SDS011;11135;54.192;15.670;2023-05-09T01:58:28;6.50;;;3.95;;
21941;SDS011;11135;54.192;15.670;2023-05-09T02:01:37;6.90;;;4.00;;
21941;SDS011;11135;54.192;15.670;2023-05-09T02:04:43;6.82;;;4.75;;
21941;SDS011;11135;54.192;15.670;2023-05-09T02:07:48;9.80;;;4.20;;
21941;SDS011;11135;54.192;15.670;2023-05-09T02:10:57;5.95;;;3.92;;
21941;SDS011;11135;54.192;15.670;2023-05-09T02:14:02;5.22;;;3.65;;
21941;SDS011;11135;54.192;15.670;2023-05-09T02:17:12;5.85;;;3.90;;
21941;SDS011;11135;54.192;15.670;2023-05-09T02:20:18;5.57;;;4.30;;
21941;SDS011;11135;54.192;15.670;2023-05-09T02:23:23;7.20;;;4.00;;
21941;SDS011;11135;54.192;15.670;2023-05-09T02:26:29;8.45;;;4.40;;
21941;SDS011;11135;54.192;15.670;2023-05-09T02:29:36;6.47;;;4.57;;
21941;SDS011;11135;54.192;15.670;2023-05-09T02:32:46;6.25;;;3.88;;
21941;SDS011;11135;54.192;15.670;2023-05-09T02:35:57;5.63;;;4.18;;
21941;SDS011;11135;54.192;15.670;2023-05-09T02:39:02;6.72;;;4.50;;
21941;SDS011;11135;54.192;15.670;2023-05-09T02:42:10;5.95;;;4.35;;
21941;SDS011;11135;54.192;15.670;2023-05-09T02:45:16;6.97;;;4.72;;
21941;SDS011;11135;54.192;15.670;2023-05-09T02:48:26;8.95;;;4.40;;
21941;SDS011;11135;54.192;15.670;2023-05-09T02:51:31;7.78;;;4.53;;
21941;SDS011;11135;54.192;15.670;2023-05-09T02:54:38;6.82;;;4.30;;
21941;SDS011;11135;54.192;15.670;2023-05-09T02:57:44;6.18;;;4.80;;
21941;SDS011;11135;54.192;15.670;2023-05-09T03:00:53;6.57;;;4.57;;
21941;SDS011;11135;54.192;15.670;2023-05-09T03:04:00;7.28;;;4.38;;
21941;SDS011;11135;54.192;15.670;2023-05-09T03:07:06;6.70;;;4.45;;
21941;SDS011;11135;54.192;15.670;2023-05-09T03:10:11;8.10;;;4.75;;
21941;SDS011;11135;54.192;15.670;2023-05-09T03:13:17;7.38;;;4.78;;
21941;SDS011;11135;54.192;15.670;2023-05-09T03:16:22;7.22;;;4.78;;
21941;SDS011;11135;54.192;15.670;2023-05-09T03:19:30;6.28;;;4.32;;
21941;SDS011;11135;54.192;15.670;2023-05-09T03:22:38;6.93;;;5.20;;
21941;SDS011;11135;54.192;15.670;2023-05-09T03:25:43;7.55;;;4.80;;
21941;SDS011;11135;54.192;15.670;2023-05-09T03:28:51;7.60;;;5.25;;
21941;SDS011;11135;54.192;15.670;2023-05-09T03:31:57;6.63;;;4.45;;
21941;SDS011;11135;54.192;15.670;2023-05-09T03:35:05;7.15;;;4.43;;
21941;SDS011;11135;54.192;15.670;2023-05-09T03:38:14;7.72;;;4.90;;
21941;SDS011;11135;54.192;15.670;2023-05-09T03:41:22;7.47;;;4.32;;
21941;SDS011;11135;54.192;15.670;2023-05-09T03:44:27;6.22;;;4.88;;
21941;SDS011;11135;54.192;15.670;2023-05-09T03:47:32;5.93;;;4.28;;
21941;SDS011;11135;54.192;15.670;2023-05-09T03:50:40;7.65;;;4.40;;
21941;SDS011;11135;54.192;15.670;2023-05-09T03:53:46;6.53;;;4.63;;
21941;SDS011;11135;54.192;15.670;2023-05-09T03:56:51;6.95;;;4.57;;
21941;SDS011;11135;54.192;15.670;2023-05-09T04:00:00;7.28;;;4.50;;
21941;SDS011;11135;54.192;15.670;2023-05-09T04:03:06;6.60;;;4.35;;
21941;SDS011;11135;54.192;15.670;2023-05-09T04:06:14;7.22;;;4.65;;
21941;SDS011;11135;54.192;15.670;2023-05-09T04:09:19;6.68;;;4.43;;
21941;SDS011;11135;54.192;15.670;2023-05-09T04:12:25;7.03;;;4.70;;
21941;SDS011;11135;54.192;15.670;2023-05-09T04:15:32;6.93;;;4.82;;
21941;SDS011;11135;54.192;15.670;2023-05-09T04:18:39;8.15;;;4.43;;
21941;SDS011;11135;54.192;15.670;2023-05-09T04:21:48;6.60;;;4.38;;
21941;SDS011;11135;54.192;15.670;2023-05-09T04:24:56;7.57;;;4.60;;
21941;SDS011;11135;54.192;15.670;2023-05-09T04:28:03;7.57;;;5.20;;
21941;SDS011;11135;54.192;15.670;2023-05-09T04:31:09;7.20;;;4.78;;
21941;SDS011;11135;54.192;15.670;2023-05-09T04:34:16;7.03;;;4.65;;
21941;SDS011;11135;54.192;15.670;2023-05-09T04:37:24;12.30;;;6.82;;
21941;SDS011;11135;54.192;15.670;2023-05-09T04:40:29;6.90;;;4.28;;
21941;SDS011;11135;54.192;15.670;2023-05-09T04:43:35;8.40;;;4.55;;
21941;SDS011;11135;54.192;15.670;2023-05-09T04:46:43;6.68;;;4.28;;
21941;SDS011;11135;54.192;15.670;2023-05-09T04:49:49;5.65;;;4.28;;
21941;SDS011;11135;54.192;15.670;2023-05-09T04:52:57;7.38;;;4.45;;
21941;SDS011;11135;54.192;15.670;2023-05-09T04:56:03;5.15;;;4.10;;
21941;SDS011;11135;54.192;15.670;2023-05-09T04:59:08;5.72;;;4.30;;
21941;SDS011;11135;54.192;15.670;2023-05-09T05:02:14;7.97;;;4.30;;
21941;SDS011;11135;54.192;15.670;2023-05-09T05:05:19;7.57;;;4.20;;
21941;SDS011;11135;54.192;15.670;2023-05-09T05:08:29;5.80;;;4.35;;
21941;SDS011;11135;54.192;15.670;2023-05-09T05:11:36;5.88;;;4.25;;
21941;SDS011;11135;54.192;15.670;2023-05-09T05:14:58;5.80;;;3.53;;
21941;SDS011;11135;54.192;15.670;2023-05-09T05:18:03;6.30;;;4.30;;
21941;SDS011;11135;54.192;15.670;2023-05-09T05:21:08;11.30;;;4.75;;
21941;SDS011;11135;54.192;15.670;2023-05-09T05:24:16;6.85;;;3.92;;
21941;SDS011;11135;54.192;15.670;2023-05-09T05:27:21;7.47;;;4.13;;
21941;SDS011;11135;54.192;15.670;2023-05-09T05:30:26;6.95;;;3.85;;
21941;SDS011;11135;54.192;15.670;2023-05-09T05:33:35;6.43;;;3.92;;
21941;SDS011;11135;54.192;15.670;2023-05-09T05:36:40;4.20;;;3.53;;
21941;SDS011;11135;54.192;15.670;2023-05-09T05:39:48;6.20;;;3.88;;
21941;SDS011;11135;54.192;15.670;2023-05-09T05:42:54;6.15;;;3.92;;
21941;SDS011;11135;54.192;15.670;2023-05-09T05:46:00;5.25;;;3.33;;
21941;SDS011;11135;54.192;15.670;2023-05-09T05:49:05;4.25;;;3.03;;
21941;SDS011;11135;54.192;15.670;2023-05-09T05:52:11;6.80;;;3.60;;
21941;SDS011;11135;54.192;15.670;2023-05-09T05:55:20;5.97;;;3.20;;
21941;SDS011;11135;54.192;15.670;2023-05-09T05:58:25;6.05;;;3.10;;
21941;SDS011;11135;54.192;15.670;2023-05-09T06:01:30;6.05;;;3.42;;
21941;SDS011;11135;54.192;15.670;2023-05-09T06:04:36;4.63;;;2.97;;
21941;SDS011;11135;54.192;15.670;2023-05-09T06:07:41;7.78;;;3.03;;
21941;SDS011;11135;54.192;15.670;2023-05-09T06:10:49;6.10;;;3.50;;
21941;SDS011;11135;54.192;15.670;2023-05-09T06:13:54;4.30;;;2.92;;
21941;SDS011;11135;54.192;15.670;2023-05-09T06:17:00;7.20;;;3.22;;
21941;SDS011;11135;54.192;15.670;2023-05-09T06:20:06;6.93;;;3.13;;
21941;SDS011;11135;54.192;15.670;2023-05-09T06:23:12;5.03;;;3.08;;
21941;SDS011;11135;54.192;15.670;2023-05-09T06:26:25;4.57;;;2.97;;
21941;SDS011;11135;54.192;15.670;2023-05-09T06:29:31;6.70;;;3.40;;
21941;SDS011;11135;54.192;15.670;2023-05-09T06:32:36;7.18;;;3.33;;
21941;SDS011;11135;54.192;15.670;2023-05-09T06:35:41;6.65;;;3.35;;
21941;SDS011;11135;54.192;15.670;2023-05-09T06:38:46;8.48;;;3.08;;
21941;SDS011;11135;54.192;15.670;2023-05-09T06:41:55;7.03;;;3.30;;
21941;SDS011;11135;54.192;15.670;2023-05-09T06:45:00;6.40;;;3.22;;
21941;SDS011;11135;54.192;15.670;2023-05-09T06:48:05;5.63;;;2.97;;
21941;SDS011;11135;54.192;15.670;2023-05-09T06:51:10;4.63;;;2.55;;
21941;SDS011;11135;54.192;15.670;2023-05-09T06:54:16;5.88;;;3.20;;
21941;SDS011;11135;54.192;15.670;2023-05-09T06:57:23;6.63;;;3.58;;
21941;SDS011;11135;54.192;15.670;2023-05-09T07:00:31;4.25;;;2.90;;
21941;SDS011;11135;54.192;15.670;2023-05-09T07:03:36;4.43;;;2.70;;
21941;SDS011;11135;54.192;15.670;2023-05-09T07:06:42;5.60;;;2.90;;
21941;SDS011;11135;54.192;15.670;2023-05-09T07:09:47;4.50;;;2.80;;
21941;SDS011;11135;54.192;15.670;2023-05-09T07:13:05;5.85;;;2.90;;
21941;SDS011;11135;54.192;15.670;2023-05-09T07:16:10;4.40;;;2.88;;
21941;SDS011;11135;54.192;15.670;2023-05-09T07:19:17;7.93;;;3.15;;
21941;SDS011;11135;54.192;15.670;2023-05-09T07:22:22;6.35;;;3.42;;
21941;SDS011;11135;54.192;15.670;2023-05-09T07:25:31;4.10;;;2.47;;
21941;SDS011;11135;54.192;15.670;2023-05-09T07:28:39;5.90;;;2.92;;
21941;SDS011;11135;54.192;15.670;2023-05-09T07:31:44;5.45;;;2.92;;
21941;SDS011;11135;54.192;15.670;2023-05-09T07:34:50;3.90;;;2.53;;
21941;SDS011;11135;54.192;15.670;2023-05-09T07:37:55;6.30;;;2.95;;
21941;SDS011;11135;54.192;15.670;2023-05-09T07:41:00;3.45;;;2.25;;
21941;SDS011;11135;54.192;15.670;2023-05-09T07:44:14;3.90;;;2.40;;
21941;SDS011;11135;54.192;15.670;2023-05-09T07:47:19;3.78;;;2.55;;
21941;SDS011;11135;54.192;15.670;2023-05-09T07:50:28;2.38;;;1.73;;
21941;SDS011;11135;54.192;15.670;2023-05-09T07:53:34;4.25;;;2.10;;
21941;SDS011;11135;54.192;15.670;2023-05-09T07:56:41;5.75;;;2.20;;
21941;SDS011;11135;54.192;15.670;2023-05-09T07:59:49;6.43;;;2.30;;
21941;SDS011;11135;54.192;15.670;2023-05-09T08:02:55;3.90;;;2.22;;
21941;SDS011;11135;54.192;15.670;2023-05-09T08:06:00;3.33;;;1.98;;
21941;SDS011;11135;54.192;15.670;2023-05-09T08:09:06;2.75;;;2.00;;
21941;SDS011;11135;54.192;15.670;2023-05-09T08:12:11;6.30;;;2.53;;
21941;SDS011;11135;54.192;15.670;2023-05-09T08:15:20;4.18;;;2.03;;
21941;SDS011;11135;54.192;15.670;2023-05-09T08:18:30;5.78;;;2.40;;
21941;SDS011;11135;54.192;15.670;2023-05-09T08:21:37;3.20;;;2.05;;
21941;SDS011;11135;54.192;15.670;2023-05-09T08:24:42;7.80;;;2.20;;
21941;SDS011;11135;54.192;15.670;2023-05-09T08:27:48;4.53;;;2.50;;
21941;SDS011;11135;54.192;15.670;2023-05-09T08:30:57;4.50;;;2.33;;
21941;SDS011;11135;54.192;15.670;2023-05-09T08:34:04;3.63;;;2.35;;
21941;SDS011;11135;54.192;15.670;2023-05-09T08:37:11;4.63;;;2.30;;
21941;SDS011;11135;54.192;15.670;2023-05-09T08:40:17;3.88;;;2.63;;
21941;SDS011;11135;54.192;15.670;2023-05-09T08:43:22;4.20;;;2.20;;
21941;SDS011;11135;54.192;15.670;2023-05-09T08:46:31;3.72;;;2.38;;
21941;SDS011;11135;54.192;15.670;2023-05-09T08:49:38;4.65;;;2.70;;
21941;SDS011;11135;54.192;15.670;2023-05-09T08:52:44;4.40;;;2.20;;
21941;SDS011;11135;54.192;15.670;2023-05-09T08:55:49;4.80;;;2.20;;
21941;SDS011;11135;54.192;15.670;2023-05-09T08:58:55;3.25;;;2.17;;
21941;SDS011;11135;54.192;15.670;2023-05-09T09:02:07;3.90;;;2.50;;
21941;SDS011;11135;54.192;15.670;2023-05-09T09:05:18;5.93;;;2.50;;
21941;SDS011;11135;54.192;15.670;2023-05-09T09:08:42;5.85;;;1.90;;
21941;SDS011;11135;54.192;15.670;2023-05-09T09:11:49;2.92;;;1.88;;
21941;SDS011;11135;54.192;15.670;2023-05-09T09:14:54;4.43;;;2.10;;
21941;SDS011;11135;54.192;15.670;2023-05-09T09:18:05;6.32;;;2.38;;
21941;SDS011;11135;54.192;15.670;2023-05-09T09:21:11;3.95;;;2.00;;
21941;SDS011;11135;54.192;15.670;2023-05-09T09:24:18;5.25;;;2.42;;
21941;SDS011;11135;54.192;15.670;2023-05-09T09:27:26;5.35;;;2.17;;
21941;SDS011;11135;54.192;15.670;2023-05-09T09:30:32;4.15;;;2.15;;
21941;SDS011;11135;54.192;15.670;2023-05-09T09:33:40;4.97;;;2.40;;
21941;SDS011;11135;54.192;15.670;2023-05-09T09:36:48;4.13;;;2.15;;
21941;SDS011;11135;54.192;15.670;2023-05-09T09:39:55;2.38;;;1.95;;
21941;SDS011;11135;54.192;15.670;2023-05-09T09:43:05;5.32;;;2.47;;
21941;SDS011;11135;54.192;15.670;2023-05-09T09:46:12;6.72;;;2.38;;
21941;SDS011;11135;54.192;15.670;2023-05-09T09:49:22;4.13;;;1.98;;
21941;SDS011;11135;54.192;15.670;2023-05-09T09:52:28;3.75;;;2.25;;
21941;SDS011;11135;54.192;15.670;2023-05-09T09:55:40;6.22;;;2.50;;
21941;SDS011;11135;54.192;15.670;2023-05-09T09:59:06;3.95;;;2.15;;
21941;SDS011;11135;54.192;15.670;2023-05-09T10:02:15;5.45;;;2.42;;
21941;SDS011;11135;54.192;15.670;2023-05-09T10:08:38;2.67;;;1.92;;
21941;SDS011;11135;54.192;15.670;2023-05-09T10:11:48;3.85;;;2.10;;
21941;SDS011;11135;54.192;15.670;2023-05-09T10:15:11;3.25;;;2.10;;
21941;SDS011;11135;54.192;15.670;2023-05-09T10:18:20;4.93;;;2.35;;
21941;SDS011;11135;54.192;15.670;2023-05-09T10:21:32;6.28;;;2.50;;
21941;SDS011;11135;54.192;15.670;2023-05-09T10:24:44;4.50;;;2.50;;
21941;SDS011;11135;54.192;15.670;2023-05-09T10:27:51;3.63;;;2.00;;
21941;SDS011;11135;54.192;15.670;2023-05-09T10:31:00;4.75;;;2.17;;
21941;SDS011;11135;54.192;15.670;2023-05-09T10:34:10;2.90;;;1.95;;
21941;SDS011;11135;54.192;15.670;2023-05-09T10:37:15;4.55;;;2.58;;
21941;SDS011;11135;54.192;15.670;2023-05-09T10:40:24;3.05;;;2.10;;
21941;SDS011;11135;54.192;15.670;2023-05-09T10:43:30;4.78;;;2.15;;
21941;SDS011;11135;54.192;15.670;2023-05-09T10:46:40;7.13;;;2.75;;
21941;SDS011;11135;54.192;15.670;2023-05-09T10:49:48;3.58;;;2.30;;
21941;SDS011;11135;54.192;15.670;2023-05-09T10:53:04;3.67;;;2.00;;
21941;SDS011;11135;54.192;15.670;2023-05-09T10:56:25;4.28;;;2.28;;
21941;SDS011;11135;54.192;15.670;2023-05-09T10:59:34;4.55;;;2.35;;
21941;SDS011;11135;54.192;15.670;2023-05-09T11:02:40;7.55;;;2.80;;
21941;SDS011;11135;54.192;15.670;2023-05-09T11:05:46;5.28;;;2.70;;
21941;SDS011;11135;54.192;15.670;2023-05-09T11:08:52;3.17;;;2.30;;
21941;SDS011;11135;54.192;15.670;2023-05-09T11:15:24;4.88;;;2.15;;
21941;SDS011;11135;54.192;15.670;2023-05-09T11:18:31;3.72;;;2.30;;
21941;SDS011;11135;54.192;15.670;2023-05-09T11:21:36;5.65;;;2.50;;
21941;SDS011;11135;54.192;15.670;2023-05-09T11:24:44;4.68;;;2.20;;
21941;SDS011;11135;54.192;15.670;2023-05-09T11:27:51;2.97;;;2.10;;
21941;SDS011;11135;54.192;15.670;2023-05-09T11:31:11;4.18;;;2.40;;
21941;SDS011;11135;54.192;15.670;2023-05-09T11:34:19;5.97;;;2.10;;
21941;SDS011;11135;54.192;15.670;2023-05-09T11:37:30;3.63;;;2.42;;
21941;SDS011;11135;54.192;15.670;2023-05-09T11:40:38;3.50;;;2.40;;
21941;SDS011;11135;54.192;15.670;2023-05-09T11:43:44;4.97;;;2.30;;
21941;SDS011;11135;54.192;15.670;2023-05-09T11:46:52;4.90;;;2.50;;
21941;SDS011;11135;54.192;15.670;2023-05-09T11:49:58;5.53;;;2.30;;
21941;SDS011;11135;54.192;15.670;2023-05-09T11:53:03;3.78;;;2.30;;
21941;SDS011;11135;54.192;15.670;2023-05-09T11:56:11;6.40;;;2.28;;
21941;SDS011;11135;54.192;15.670;2023-05-09T11:59:18;3.10;;;2.22;;
21941;SDS011;11135;54.192;15.670;2023-05-09T12:02:26;3.97;;;2.70;;
21941;SDS011;11135;54.192;15.670;2023-05-09T12:05:32;6.78;;;2.83;;
21941;SDS011;11135;54.192;15.670;2023-05-09T12:08:39;7.85;;;2.60;;
21941;SDS011;11135;54.192;15.670;2023-05-09T12:11:47;3.67;;;2.45;;
21941;SDS011;11135;54.192;15.670;2023-05-09T12:14:55;5.10;;;2.60;;
21941;SDS011;11135;54.192;15.670;2023-05-09T12:18:03;4.00;;;2.63;;
21941;SDS011;11135;54.192;15.670;2023-05-09T12:21:09;4.43;;;2.60;;
21941;SDS011;11135;54.192;15.670;2023-05-09T12:24:19;3.38;;;2.80;;
21941;SDS011;11135;54.192;15.670;2023-05-09T12:27:24;6.53;;;3.03;;
21941;SDS011;11135;54.192;15.670;2023-05-09T12:30:29;3.60;;;2.20;;
21941;SDS011;11135;54.192;15.670;2023-05-09T12:33:38;5.30;;;3.00;;
21941;SDS011;11135;54.192;15.670;2023-05-09T12:36:44;5.55;;;2.60;;
21941;SDS011;11135;54.192;15.670;2023-05-09T12:40:01;3.78;;;2.30;;
21941;SDS011;11135;54.192;15.670;2023-05-09T12:43:31;5.30;;;2.60;;
21941;SDS011;11135;54.192;15.670;2023-05-09T12:46:37;4.68;;;3.08;;
21941;SDS011;11135;54.192;15.670;2023-05-09T12:49:45;5.88;;;2.88;;
21941;SDS011;11135;54.192;15.670;2023-05-09T12:52:54;5.30;;;2.70;;
21941;SDS011;11135;54.192;15.670;2023-05-09T12:56:11;4.88;;;2.55;;
21941;SDS011;11135;54.192;15.670;2023-05-09T12:59:19;5.13;;;2.55;;
21941;SDS011;11135;54.192;15.670;2023-05-09T13:02:25;3.63;;;2.50;;
21941;SDS011;11135;54.192;15.670;2023-05-09T13:05:33;4.47;;;2.42;;
21941;SDS011;11135;54.192;15.670;2023-05-09T13:08:39;4.00;;;2.72;;
21941;SDS011;11135;54.192;15.670;2023-05-09T13:11:45;5.30;;;3.00;;
21941;SDS011;11135;54.192;15.670;2023-05-09T13:14:52;4.72;;;2.65;;
21941;SDS011;11135;54.192;15.670;2023-05-09T13:17:57;3.30;;;2.42;;
21941;SDS011;11135;54.192;15.670;2023-05-09T13:21:05;6.70;;;2.53;;
21941;SDS011;11135;54.192;15.670;2023-05-09T13:24:11;4.65;;;2.58;;
21941;SDS011;11135;54.192;15.670;2023-05-09T13:27:16;4.90;;;2.70;;
21941;SDS011;11135;54.192;15.670;2023-05-09T13:30:24;4.57;;;2.30;;
21941;SDS011;11135;54.192;15.670;2023-05-09T13:33:31;5.20;;;2.60;;
21941;SDS011;11135;54.192;15.670;2023-05-09T13:36:41;3.40;;;2.60;;
21941;SDS011;11135;54.192;15.670;2023-05-09T13:39:47;3.65;;;2.47;;
21941;SDS011;11135;54.192;15.670;2023-05-09T13:42:52;4.53;;;3.00;;
21941;SDS011;11135;54.192;15.670;2023-05-09T13:45:58;6.07;;;3.00;;
21941;SDS011;11135;54.192;15.670;2023-05-09T13:49:13;4.38;;;2.53;;
21941;SDS011;11135;54.192;15.670;2023-05-09T13:52:31;5.30;;;2.55;;
21941;SDS011;11135;54.192;15.670;2023-05-09T13:55:37;4.65;;;2.22;;
21941;SDS011;11135;54.192;15.670;2023-05-09T13:58:45;3.22;;;2.53;;
21941;SDS011;11135;54.192;15.670;2023-05-09T14:01:50;5.95;;;2.60;;
21941;SDS011;11135;54.192;15.670;2023-05-09T14:04:58;3.78;;;2.30;;
21941;SDS011;11135;54.192;15.670;2023-05-09T14:08:09;6.05;;;2.60;;
21941;SDS011;11135;54.192;15.670;2023-05-09T14:11:35;4.20;;;2.58;;
21941;SDS011;11135;54.192;15.670;2023-05-09T14:14:41;4.00;;;2.70;;
21941;SDS011;11135;54.192;15.670;2023-05-09T14:17:48;5.65;;;3.00;;
21941;SDS011;11135;54.192;15.670;2023-05-09T14:20:55;5.63;;;2.85;;
21941;SDS011;11135;54.192;15.670;2023-05-09T14:24:04;3.90;;;2.42;;
21941;SDS011;11135;54.192;15.670;2023-05-09T14:27:09;4.35;;;2.63;;
21941;SDS011;11135;54.192;15.670;2023-05-09T14:30:22;5.63;;;2.80;;
21941;SDS011;11135;54.192;15.670;2023-05-09T14:33:27;5.22;;;2.70;;
21941;SDS011;11135;54.192;15.670;2023-05-09T14:36:34;4.18;;;2.75;;
21941;SDS011;11135;54.192;15.670;2023-05-09T14:39:42;5.18;;;2.55;;
21941;SDS011;11135;54.192;15.670;2023-05-09T14:42:49;6.85;;;2.78;;
21941;SDS011;11135;54.192;15.670;2023-05-09T14:45:54;5.07;;;2.70;;
21941;SDS011;11135;54.192;15.670;2023-05-09T14:49:02;4.93;;;2.72;;
21941;SDS011;11135;54.192;15.670;2023-05-09T14:52:08;5.05;;;3.00;;
21941;SDS011;11135;54.192;15.670;2023-05-09T14:55:18;4.32;;;2.53;;
21941;SDS011;11135;54.192;15.670;2023-05-09T14:58:26;4.95;;;2.75;;
21941;SDS011;11135;54.192;15.670;2023-05-09T15:01:32;4.35;;;3.10;;
21941;SDS011;11135;54.192;15.670;2023-05-09T15:04:38;3.67;;;2.58;;
21941;SDS011;11135;54.192;15.670;2023-05-09T15:07:47;5.00;;;2.70;;
21941;SDS011;11135;54.192;15.670;2023-05-09T15:10:54;5.03;;;2.75;;
21941;SDS011;11135;54.192;15.670;2023-05-09T15:14:05;4.85;;;2.40;;
21941;SDS011;11135;54.192;15.670;2023-05-09T15:17:11;3.40;;;2.40;;
21941;SDS011;11135;54.192;15.670;2023-05-09T15:20:21;4.97;;;2.78;;
21941;SDS011;11135;54.192;15.670;2023-05-09T15:23:26;5.22;;;2.85;;
21941;SDS011;11135;54.192;15.670;2023-05-09T15:26:35;5.38;;;2.80;;
21941;SDS011;11135;54.192;15.670;2023-05-09T15:29:40;6.30;;;3.05;;
21941;SDS011;11135;54.192;15.670;2023-05-09T15:32:48;4.55;;;2.50;;
21941;SDS011;11135;54.192;15.670;2023-05-09T15:35:55;5.80;;;2.55;;
21941;SDS011;11135;54.192;15.670;2023-05-09T15:39:01;4.05;;;3.10;;
21941;SDS011;11135;54.192;15.670;2023-05-09T15:42:09;6.35;;;2.78;;
21941;SDS011;11135;54.192;15.670;2023-05-09T15:45:18;5.47;;;2.70;;
21941;SDS011;11135;54.192;15.670;2023-05-09T15:48:25;4.75;;;2.40;;
21941;SDS011;11135;54.192;15.670;2023-05-09T15:51:31;4.65;;;2.30;;
21941;SDS011;11135;54.192;15.670;2023-05-09T15:54:36;3.95;;;2.30;;
21941;SDS011;11135;54.192;15.670;2023-05-09T15:57:44;5.90;;;2.90;;
21941;SDS011;11135;54.192;15.670;2023-05-09T16:00:49;4.95;;;2.30;;
21941;SDS011;11135;54.192;15.670;2023-05-09T16:03:54;5.60;;;2.40;;
21941;SDS011;11135;54.192;15.670;2023-05-09T16:07:00;6.03;;;2.35;;
21941;SDS011;11135;54.192;15.670;2023-05-09T16:10:06;4.07;;;2.30;;
21941;SDS011;11135;54.192;15.670;2023-05-09T16:13:16;4.97;;;2.72;;
21941;SDS011;11135;54.192;15.670;2023-05-09T16:16:22;5.00;;;2.80;;
21941;SDS011;11135;54.192;15.670;2023-05-09T16:19:27;4.90;;;2.25;;
21941;SDS011;11135;54.192;15.670;2023-05-09T16:22:36;4.10;;;2.58;;
21941;SDS011;11135;54.192;15.670;2023-05-09T16:25:44;3.67;;;2.20;;
21941;SDS011;11135;54.192;15.670;2023-05-09T16:29:00;4.55;;;2.38;;
21941;SDS011;11135;54.192;15.670;2023-05-09T16:32:05;4.65;;;2.38;;
21941;SDS011;11135;54.192;15.670;2023-05-09T16:35:11;7.20;;;2.70;;
21941;SDS011;11135;54.192;15.670;2023-05-09T16:38:16;5.50;;;2.50;;
21941;SDS011;11135;54.192;15.670;2023-05-09T16:41:22;6.00;;;2.85;;
21941;SDS011;11135;54.192;15.670;2023-05-09T16:44:30;3.15;;;2.00;;
21941;SDS011;11135;54.192;15.670;2023-05-09T16:47:36;4.43;;;2.65;;
21941;SDS011;11135;54.192;15.670;2023-05-09T16:50:41;4.18;;;2.85;;
21941;SDS011;11135;54.192;15.670;2023-05-09T16:53:47;6.63;;;2.70;;
21941;SDS011;11135;54.192;15.670;2023-05-09T16:56:55;4.60;;;2.60;;
21941;SDS011;11135;54.192;15.670;2023-05-09T17:00:03;4.35;;;2.55;;
21941;SDS011;11135;54.192;15.670;2023-05-09T17:03:14;4.15;;;2.25;;
21941;SDS011;11135;54.192;15.670;2023-05-09T17:06:29;4.03;;;2.15;;
21941;SDS011;11135;54.192;15.670;2023-05-09T17:09:46;5.55;;;2.95;;
21941;SDS011;11135;54.192;15.670;2023-05-09T17:12:52;5.88;;;2.58;;
21941;SDS011;11135;54.192;15.670;2023-05-09T17:16:00;5.53;;;2.50;;
21941;SDS011;11135;54.192;15.670;2023-05-09T17:19:06;4.07;;;2.38;;
21941;SDS011;11135;54.192;15.670;2023-05-09T17:22:29;4.53;;;2.33;;
21941;SDS011;11135;54.192;15.670;2023-05-09T17:25:40;4.25;;;2.30;;
21941;SDS011;11135;54.192;15.670;2023-05-09T17:28:46;3.10;;;2.35;;
21941;SDS011;11135;54.192;15.670;2023-05-09T17:31:58;6.35;;;2.33;;
21941;SDS011;11135;54.192;15.670;2023-05-09T17:35:25;7.03;;;2.45;;
21941;SDS011;11135;54.192;15.670;2023-05-09T17:38:38;4.35;;;2.50;;
21941;SDS011;11135;54.192;15.670;2023-05-09T17:41:59;5.72;;;3.20;;
21941;SDS011;11135;54.192;15.670;2023-05-09T17:45:09;6.70;;;2.63;;
21941;SDS011;11135;54.192;15.670;2023-05-09T17:48:17;3.25;;;2.30;;
21941;SDS011;11135;54.192;15.670;2023-05-09T17:51:22;5.15;;;3.05;;
21941;SDS011;11135;54.192;15.670;2023-05-09T17:54:28;6.15;;;2.95;;
21941;SDS011;11135;54.192;15.670;2023-05-09T17:57:33;3.05;;;2.00;;
21941;SDS011;11135;54.192;15.670;2023-05-09T18:00:39;5.65;;;2.60;;
21941;SDS011;11135;54.192;15.670;2023-05-09T18:03:47;5.15;;;2.58;;
21941;SDS011;11135;54.192;15.670;2023-05-09T18:06:54;3.90;;;2.47;;
21941;SDS011;11135;54.192;15.670;2023-05-09T18:10:01;4.47;;;2.60;;
21941;SDS011;11135;54.192;15.670;2023-05-09T18:13:06;4.95;;;2.75;;
21941;SDS011;11135;54.192;15.670;2023-05-09T18:16:15;4.60;;;2.95;;
21941;SDS011;11135;54.192;15.670;2023-05-09T18:19:29;4.40;;;2.80;;
21941;SDS011;11135;54.192;15.670;2023-05-09T18:22:37;5.43;;;2.50;;
21941;SDS011;11135;54.192;15.670;2023-05-09T18:25:42;5.68;;;2.55;;
21941;SDS011;11135;54.192;15.670;2023-05-09T18:28:49;6.25;;;2.72;;
21941;SDS011;11135;54.192;15.670;2023-05-09T18:31:54;6.25;;;3.00;;
21941;SDS011;11135;54.192;15.670;2023-05-09T18:35:03;6.88;;;2.88;;
21941;SDS011;11135;54.192;15.670;2023-05-09T18:38:10;4.78;;;2.92;;
21941;SDS011;11135;54.192;15.670;2023-05-09T18:41:16;5.38;;;3.25;;
21941;SDS011;11135;54.192;15.670;2023-05-09T18:45:07;4.25;;;2.58;;